sensor_id;sensor_type;location;lat;lon;timestamp;temperature;humidity
19206;DHT22;59358;52.134;5.596;2023-01-25T00:01:53;1.70;99.90
19206;DHT22;59358;52.134;5.596;2023-01-25T00:04:22;1.80;99.90
19206;DHT22;59358;52.134;5.596;2023-01-25T00:06:49;1.70;99.90
19206;DHT22;59358;52.134;5.596;2023-01-25T00:09:16;1.80;99.90
19206;DHT22;59358;52.134;5.596;2023-01-25T00:11:44;1.80;99.90
19206;DHT22;59358;52.134;5.596;2023-01-25T00:14:13;1.80;99.90
19206;DHT22;59358;52.134;5.596;2023-01-25T00:16:41;1.80;99.90
19206;DHT22;59358;52.134;5.596;2023-01-25T00:19:09;1.70;99.90
19206;DHT22;59358;52.134;5.596;2023-01-25T00:21:36;1.70;99.90
19206;DHT22;59358;52.134;5.596;2023-01-25T00:24:04;1.70;99.90
19206;DHT22;59358;52.134;5.596;2023-01-25T00:26:31;1.70;99.90
19206;DHT22;59358;52.134;5.596;2023-01-25T00:28:59;1.80;99.90
19206;DHT22;59358;52.134;5.596;2023-01-25T00:31:36;1.70;99.90
19206;DHT22;59358;52.134;5.596;2023-01-25T00:34:13;1.60;99.90
19206;DHT22;59358;52.134;5.596;2023-01-25T00:36:55;1.60;99.90
19206;DHT22;59358;52.134;5.596;2023-01-25T00:39:24;1.60;99.90
19206;DHT22;59358;52.134;5.596;2023-01-25T00:41:52;1.50;99.90
19206;DHT22;59358;52.134;5.596;2023-01-25T00:44:19;1.60;99.90
19206;DHT22;59358;52.134;5.596;2023-01-25T00:46:47;1.50;99.90
19206;DHT22;59358;52.134;5.596;2023-01-25T00:49:19;1.50;99.90
19206;DHT22;59358;52.134;5.596;2023-01-25T00:51:46;1.50;99.90
19206;DHT22;59358;52.134;5.596;2023-01-25T00:54:14;1.50;99.90
19206;DHT22;59358;52.134;5.596;2023-01-25T00:56:40;1.50;99.90
19206;DHT22;59358;52.134;5.596;2023-01-25T00:59:08;1.50;99.90
19206;DHT22;59358;52.134;5.596;2023-01-25T01:01:35;1.50;99.90
19206;DHT22;59358;52.134;5.596;2023-01-25T01:04:04;1.50;99.90
19206;DHT22;59358;52.134;5.596;2023-01-25T01:06:31;1.50;99.90
19206;DHT22;59358;52.134;5.596;2023-01-25T01:09:00;1.50;99.90
19206;DHT22;59358;52.134;5.596;2023-01-25T01:11:27;1.40;99.90
19206;DHT22;59358;52.134;5.596;2023-01-25T01:13:56;1.40;99.90
19206;DHT22;59358;52.134;5.596;2023-01-25T01:16:23;1.30;99.90
19206;DHT22;59358;52.134;5.596;2023-01-25T01:18:50;1.30;99.90
19206;DHT22;59358;52.134;5.596;2023-01-25T01:21:19;1.30;99.90
19206;DHT22;59358;52.134;5.596;2023-01-25T01:23:46;1.40;99.90
19206;DHT22;59358;52.134;5.596;2023-01-25T01:26:15;1.50;99.90
19206;DHT22;59358;52.134;5.596;2023-01-25T01:28:44;1.50;99.90
19206;DHT22;59358;52.134;5.596;2023-01-25T01:31:12;1.40;99.90
19206;DHT22;59358;52.134;5.596;2023-01-25T01:33:40;1.40;99.90
19206;DHT22;59358;52.134;5.596;2023-01-25T01:36:08;1.50;99.90
19206;DHT22;59358;52.134;5.596;2023-01-25T01:38:37;1.40;99.90
19206;DHT22;59358;52.134;5.596;2023-01-25T01:41:04;1.30;99.90
19206;DHT22;59358;52.134;5.596;2023-01-25T01:43:31;1.30;99.90
19206;DHT22;59358;52.134;5.596;2023-01-25T01:45:59;1.40;99.90
19206;DHT22;59358;52.134;5.596;2023-01-25T01:48:32;1.50;99.90
19206;DHT22;59358;52.134;5.596;2023-01-25T01:51:02;1.40;99.90
19206;DHT22;59358;52.134;5.596;2023-01-25T01:53:31;1.30;99.90
19206;DHT22;59358;52.134;5.596;2023-01-25T01:56:02;1.30;99.90
19206;DHT22;59358;52.134;5.596;2023-01-25T01:58:31;1.30;99.90
19206;DHT22;59358;52.134;5.596;2023-01-25T02:00:59;1.30;99.90
19206;DHT22;59358;52.134;5.596;2023-01-25T02:03:27;1.30;99.90
19206;DHT22;59358;52.134;5.596;2023-01-25T02:05:57;1.30;99.90
19206;DHT22;59358;52.134;5.596;2023-01-25T02:08:27;1.30;99.90
19206;DHT22;59358;52.134;5.596;2023-01-25T02:10:56;1.30;99.90
19206;DHT22;59358;52.134;5.596;2023-01-25T02:13:26;1.40;99.90
19206;DHT22;59358;52.134;5.596;2023-01-25T02:15:53;1.40;99.90
19206;DHT22;59358;52.134;5.596;2023-01-25T02:18:22;1.30;99.90
19206;DHT22;59358;52.134;5.596;2023-01-25T02:20:51;1.30;99.90
19206;DHT22;59358;52.134;5.596;2023-01-25T02:23:24;1.30;99.90
19206;DHT22;59358;52.134;5.596;2023-01-25T02:25:56;1.30;99.90
19206;DHT22;59358;52.134;5.596;2023-01-25T02:28:26;1.30;99.90
19206;DHT22;59358;52.134;5.596;2023-01-25T02:30:55;1.20;99.90
19206;DHT22;59358;52.134;5.596;2023-01-25T02:33:22;1.20;99.90
19206;DHT22;59358;52.134;5.596;2023-01-25T02:35:54;1.30;99.90
19206;DHT22;59358;52.134;5.596;2023-01-25T02:38:22;1.20;99.90
19206;DHT22;59358;52.134;5.596;2023-01-25T02:40:58;1.20;99.90
19206;DHT22;59358;52.134;5.596;2023-01-25T02:43:29;1.20;99.90
19206;DHT22;59358;52.134;5.596;2023-01-25T02:46:00;1.20;99.90
19206;DHT22;59358;52.134;5.596;2023-01-25T02:48:29;1.10;99.90
19206;DHT22;59358;52.134;5.596;2023-01-25T02:50:55;1.10;99.90
19206;DHT22;59358;52.134;5.596;2023-01-25T02:53:22;1.10;99.90
19206;DHT22;59358;52.134;5.596;2023-01-25T02:55:49;1.10;99.90
19206;DHT22;59358;52.134;5.596;2023-01-25T02:58:17;1.10;99.90
19206;DHT22;59358;52.134;5.596;2023-01-25T03:00:44;1.10;99.90
19206;DHT22;59358;52.134;5.596;2023-01-25T03:03:11;1.20;99.90
19206;DHT22;59358;52.134;5.596;2023-01-25T03:05:38;1.20;99.90
19206;DHT22;59358;52.134;5.596;2023-01-25T03:08:05;1.20;99.90
19206;DHT22;59358;52.134;5.596;2023-01-25T03:10:31;1.20;99.90
19206;DHT22;59358;52.134;5.596;2023-01-25T03:12:58;1.20;99.90
19206;DHT22;59358;52.134;5.596;2023-01-25T03:15:27;1.20;99.90
19206;DHT22;59358;52.134;5.596;2023-01-25T03:17:54;1.20;99.90
19206;DHT22;59358;52.134;5.596;2023-01-25T03:20:21;1.10;99.90
19206;DHT22;59358;52.134;5.596;2023-01-25T03:22:48;1.00;99.90
19206;DHT22;59358;52.134;5.596;2023-01-25T03:25:15;1.10;99.90
19206;DHT22;59358;52.134;5.596;2023-01-25T03:27:42;1.10;99.90
19206;DHT22;59358;52.134;5.596;2023-01-25T03:30:10;1.10;99.90
19206;DHT22;59358;52.134;5.596;2023-01-25T03:32:38;1.10;99.90
19206;DHT22;59358;52.134;5.596;2023-01-25T03:35:06;1.00;99.90
19206;DHT22;59358;52.134;5.596;2023-01-25T03:37:33;1.00;99.90
19206;DHT22;59358;52.134;5.596;2023-01-25T03:40:00;1.00;99.90
19206;DHT22;59358;52.134;5.596;2023-01-25T03:42:27;0.90;99.90
19206;DHT22;59358;52.134;5.596;2023-01-25T03:44:54;0.80;99.90
19206;DHT22;59358;52.134;5.596;2023-01-25T03:47:21;0.80;99.90
19206;DHT22;59358;52.134;5.596;2023-01-25T03:49:49;0.80;99.90
19206;DHT22;59358;52.134;5.596;2023-01-25T03:52:16;0.90;99.90
19206;DHT22;59358;52.134;5.596;2023-01-25T03:54:43;0.90;99.90
19206;DHT22;59358;52.134;5.596;2023-01-25T03:57:10;0.90;99.90
19206;DHT22;59358;52.134;5.596;2023-01-25T03:59:37;0.80;99.90
19206;DHT22;59358;52.134;5.596;2023-01-25T04:02:04;0.70;99.90
19206;DHT22;59358;52.134;5.596;2023-01-25T04:04:31;0.80;99.90
19206;DHT22;59358;52.134;5.596;2023-01-25T04:06:59;0.80;99.90
19206;DHT22;59358;52.134;5.596;2023-01-25T04:09:26;0.90;99.90
19206;DHT22;59358;52.134;5.596;2023-01-25T04:11:53;0.80;99.90
19206;DHT22;59358;52.134;5.596;2023-01-25T04:14:20;0.80;99.90
19206;DHT22;59358;52.134;5.596;2023-01-25T04:16:47;0.80;99.90
19206;DHT22;59358;52.134;5.596;2023-01-25T04:19:13;0.80;99.90
19206;DHT22;59358;52.134;5.596;2023-01-25T04:21:40;0.90;99.90
19206;DHT22;59358;52.134;5.596;2023-01-25T04:24:08;0.90;99.90
19206;DHT22;59358;52.134;5.596;2023-01-25T04:26:35;0.90;99.90
19206;DHT22;59358;52.134;5.596;2023-01-25T04:29:02;0.90;99.90
19206;DHT22;59358;52.134;5.596;2023-01-25T04:31:29;0.80;99.90
19206;DHT22;59358;52.134;5.596;2023-01-25T04:33:56;0.70;99.90
19206;DHT22;59358;52.134;5.596;2023-01-25T04:36:23;0.70;99.90
19206;DHT22;59358;52.134;5.596;2023-01-25T04:38:50;0.70;99.90
19206;DHT22;59358;52.134;5.596;2023-01-25T04:41:18;0.70;99.90
19206;DHT22;59358;52.134;5.596;2023-01-25T04:43:45;0.80;99.90
19206;DHT22;59358;52.134;5.596;2023-01-25T04:46:12;0.70;99.90
19206;DHT22;59358;52.134;5.596;2023-01-25T04:48:39;0.80;99.90
19206;DHT22;59358;52.134;5.596;2023-01-25T04:51:06;0.80;99.90
19206;DHT22;59358;52.134;5.596;2023-01-25T04:53:33;0.70;99.90
19206;DHT22;59358;52.134;5.596;2023-01-25T04:56:00;0.70;99.90
19206;DHT22;59358;52.134;5.596;2023-01-25T04:58:29;0.60;99.90
19206;DHT22;59358;52.134;5.596;2023-01-25T05:00:59;0.60;99.90
19206;DHT22;59358;52.134;5.596;2023-01-25T05:03:26;0.70;99.90
19206;DHT22;59358;52.134;5.596;2023-01-25T05:05:53;0.70;99.90
19206;DHT22;59358;52.134;5.596;2023-01-25T05:08:20;0.70;99.90
19206;DHT22;59358;52.134;5.596;2023-01-25T05:10:47;0.70;99.90
19206;DHT22;59358;52.134;5.596;2023-01-25T05:13:14;0.70;99.90
19206;DHT22;59358;52.134;5.596;2023-01-25T05:15:42;0.70;99.90
19206;DHT22;59358;52.134;5.596;2023-01-25T05:18:09;0.70;99.90
19206;DHT22;59358;52.134;5.596;2023-01-25T05:20:36;0.80;99.90
19206;DHT22;59358;52.134;5.596;2023-01-25T05:23:02;0.80;99.90
19206;DHT22;59358;52.134;5.596;2023-01-25T05:25:29;0.90;99.90
19206;DHT22;59358;52.134;5.596;2023-01-25T05:28:14;0.80;99.90
19206;DHT22;59358;52.134;5.596;2023-01-25T05:30:43;0.80;99.90
19206;DHT22;59358;52.134;5.596;2023-01-25T05:33:09;0.90;99.90
19206;DHT22;59358;52.134;5.596;2023-01-25T05:35:36;0.80;99.90
19206;DHT22;59358;52.134;5.596;2023-01-25T05:38:03;0.80;99.90
19206;DHT22;59358;52.134;5.596;2023-01-25T05:40:30;0.80;99.90
19206;DHT22;59358;52.134;5.596;2023-01-25T05:42:58;0.80;99.90
19206;DHT22;59358;52.134;5.596;2023-01-25T05:45:25;0.70;99.90
19206;DHT22;59358;52.134;5.596;2023-01-25T05:47:54;0.50;99.90
19206;DHT22;59358;52.134;5.596;2023-01-25T05:50:21;0.50;99.90
19206;DHT22;59358;52.134;5.596;2023-01-25T05:52:51;0.50;99.90
19206;DHT22;59358;52.134;5.596;2023-01-25T05:55:18;0.60;99.90
19206;DHT22;59358;52.134;5.596;2023-01-25T05:57:45;0.60;99.90
19206;DHT22;59358;52.134;5.596;2023-01-25T06:00:12;0.70;99.90
19206;DHT22;59358;52.134;5.596;2023-01-25T06:02:40;0.70;99.90
19206;DHT22;59358;52.134;5.596;2023-01-25T06:05:09;0.70;99.90
19206;DHT22;59358;52.134;5.596;2023-01-25T06:07:36;0.70;99.90
19206;DHT22;59358;52.134;5.596;2023-01-25T06:10:03;0.60;99.90
19206;DHT22;59358;52.134;5.596;2023-01-25T06:12:30;0.70;99.90
19206;DHT22;59358;52.134;5.596;2023-01-25T06:14:57;0.70;99.90
19206;DHT22;59358;52.134;5.596;2023-01-25T06:17:24;0.80;99.90
19206;DHT22;59358;52.134;5.596;2023-01-25T06:19:51;0.70;99.90
19206;DHT22;59358;52.134;5.596;2023-01-25T06:22:20;0.70;99.90
19206;DHT22;59358;52.134;5.596;2023-01-25T06:24:46;0.70;99.90
19206;DHT22;59358;52.134;5.596;2023-01-25T06:27:13;0.70;99.90
19206;DHT22;59358;52.134;5.596;2023-01-25T06:29:41;0.60;99.90
19206;DHT22;59358;52.134;5.596;2023-01-25T06:32:08;0.60;99.90
19206;DHT22;59358;52.134;5.596;2023-01-25T06:34:35;0.50;99.90
19206;DHT22;59358;52.134;5.596;2023-01-25T06:37:01;0.60;99.90
19206;DHT22;59358;52.134;5.596;2023-01-25T06:39:30;0.60;99.90
19206;DHT22;59358;52.134;5.596;2023-01-25T06:41:57;0.50;99.90
19206;DHT22;59358;52.134;5.596;2023-01-25T06:44:23;0.50;99.90
19206;DHT22;59358;52.134;5.596;2023-01-25T06:46:50;0.50;99.90
19206;DHT22;59358;52.134;5.596;2023-01-25T06:49:17;0.40;99.90
19206;DHT22;59358;52.134;5.596;2023-01-25T06:51:44;0.40;99.90
19206;DHT22;59358;52.134;5.596;2023-01-25T06:54:11;0.30;99.90
19206;DHT22;59358;52.134;5.596;2023-01-25T06:56:39;0.40;99.90
19206;DHT22;59358;52.134;5.596;2023-01-25T06:59:06;0.40;99.90
19206;DHT22;59358;52.134;5.596;2023-01-25T07:01:33;0.30;99.90
19206;DHT22;59358;52.134;5.596;2023-01-25T07:04:00;0.20;99.90
19206;DHT22;59358;52.134;5.596;2023-01-25T07:06:31;0.30;99.90
19206;DHT22;59358;52.134;5.596;2023-01-25T07:09:02;0.30;99.90
19206;DHT22;59358;52.134;5.596;2023-01-25T07:11:29;0.30;99.90
19206;DHT22;59358;52.134;5.596;2023-01-25T07:13:57;0.30;99.90
19206;DHT22;59358;52.134;5.596;2023-01-25T07:16:24;0.30;99.90
19206;DHT22;59358;52.134;5.596;2023-01-25T07:18:52;0.40;99.90
19206;DHT22;59358;52.134;5.596;2023-01-25T07:21:21;0.40;99.90
19206;DHT22;59358;52.134;5.596;2023-01-25T07:23:49;0.40;99.90
19206;DHT22;59358;52.134;5.596;2023-01-25T07:26:18;0.50;99.90
19206;DHT22;59358;52.134;5.596;2023-01-25T07:28:46;0.50;99.90
19206;DHT22;59358;52.134;5.596;2023-01-25T07:31:16;0.50;99.90
19206;DHT22;59358;52.134;5.596;2023-01-25T07:33:46;0.50;99.90
19206;DHT22;59358;52.134;5.596;2023-01-25T07:36:13;0.40;99.90
19206;DHT22;59358;52.134;5.596;2023-01-25T07:38:41;0.30;99.90
19206;DHT22;59358;52.134;5.596;2023-01-25T07:41:08;0.50;99.90
19206;DHT22;59358;52.134;5.596;2023-01-25T07:43:36;0.50;99.90
19206;DHT22;59358;52.134;5.596;2023-01-25T07:46:05;0.30;99.90
19206;DHT22;59358;52.134;5.596;2023-01-25T07:48:34;0.20;99.90
19206;DHT22;59358;52.134;5.596;2023-01-25T07:51:02;0.30;99.90
19206;DHT22;59358;52.134;5.596;2023-01-25T07:53:48;0.30;99.90
19206;DHT22;59358;52.134;5.596;2023-01-25T07:56:15;0.40;99.90
19206;DHT22;59358;52.134;5.596;2023-01-25T07:58:44;0.40;99.90
19206;DHT22;59358;52.134;5.596;2023-01-25T08:01:13;0.50;99.90
19206;DHT22;59358;52.134;5.596;2023-01-25T08:03:42;0.60;99.90
19206;DHT22;59358;52.134;5.596;2023-01-25T08:06:10;0.50;99.90
19206;DHT22;59358;52.134;5.596;2023-01-25T08:08:39;0.50;99.90
19206;DHT22;59358;52.134;5.596;2023-01-25T08:11:09;0.40;99.90
19206;DHT22;59358;52.134;5.596;2023-01-25T08:13:36;0.50;99.90
19206;DHT22;59358;52.134;5.596;2023-01-25T08:16:03;0.40;99.90
19206;DHT22;59358;52.134;5.596;2023-01-25T08:18:31;0.20;99.90
19206;DHT22;59358;52.134;5.596;2023-01-25T08:20:59;0.20;99.90
19206;DHT22;59358;52.134;5.596;2023-01-25T08:23:27;0.20;99.90
19206;DHT22;59358;52.134;5.596;2023-01-25T08:25:54;0.40;99.90
19206;DHT22;59358;52.134;5.596;2023-01-25T08:28:21;0.50;99.90
19206;DHT22;59358;52.134;5.596;2023-01-25T08:30:48;0.50;99.90
19206;DHT22;59358;52.134;5.596;2023-01-25T08:33:18;0.50;99.90
19206;DHT22;59358;52.134;5.596;2023-01-25T08:35:53;0.40;99.90
19206;DHT22;59358;52.134;5.596;2023-01-25T08:38:22;0.40;99.90
19206;DHT22;59358;52.134;5.596;2023-01-25T08:40:50;0.50;99.90
19206;DHT22;59358;52.134;5.596;2023-01-25T08:43:17;0.50;99.90
19206;DHT22;59358;52.134;5.596;2023-01-25T08:45:44;0.40;99.90
19206;DHT22;59358;52.134;5.596;2023-01-25T08:48:11;0.40;99.90
19206;DHT22;59358;52.134;5.596;2023-01-25T08:50:44;0.20;99.90
19206;DHT22;59358;52.134;5.596;2023-01-25T08:53:11;0.30;99.90
19206;DHT22;59358;52.134;5.596;2023-01-25T08:55:40;0.30;99.90
19206;DHT22;59358;52.134;5.596;2023-01-25T08:58:08;0.30;99.90
19206;DHT22;59358;52.134;5.596;2023-01-25T09:00:36;0.30;99.90
19206;DHT22;59358;52.134;5.596;2023-01-25T09:03:04;0.40;99.90
19206;DHT22;59358;52.134;5.596;2023-01-25T09:05:32;0.50;99.90
19206;DHT22;59358;52.134;5.596;2023-01-25T09:08:00;0.40;99.90
19206;DHT22;59358;52.134;5.596;2023-01-25T09:10:27;0.50;99.90
19206;DHT22;59358;52.134;5.596;2023-01-25T09:12:55;0.50;99.90
19206;DHT22;59358;52.134;5.596;2023-01-25T09:15:22;0.60;99.90
19206;DHT22;59358;52.134;5.596;2023-01-25T09:17:50;0.60;99.90
19206;DHT22;59358;52.134;5.596;2023-01-25T09:20:17;0.70;99.90
19206;DHT22;59358;52.134;5.596;2023-01-25T09:22:45;0.80;99.90
19206;DHT22;59358;52.134;5.596;2023-01-25T09:25:12;0.70;99.90
19206;DHT22;59358;52.134;5.596;2023-01-25T09:27:39;0.50;99.90
19206;DHT22;59358;52.134;5.596;2023-01-25T09:30:09;0.30;99.90
19206;DHT22;59358;52.134;5.596;2023-01-25T09:32:36;0.30;99.90
19206;DHT22;59358;52.134;5.596;2023-01-25T09:35:04;0.40;99.90
19206;DHT22;59358;52.134;5.596;2023-01-25T09:37:31;0.50;99.90
19206;DHT22;59358;52.134;5.596;2023-01-25T09:39:58;0.60;99.90
19206;DHT22;59358;52.134;5.596;2023-01-25T09:45:30;0.50;99.90
19206;DHT22;59358;52.134;5.596;2023-01-25T09:48:03;0.50;99.90
19206;DHT22;59358;52.134;5.596;2023-01-25T09:50:37;0.40;99.90
19206;DHT22;59358;52.134;5.596;2023-01-25T09:53:27;0.30;99.90
19206;DHT22;59358;52.134;5.596;2023-01-25T09:55:58;0.30;99.90
19206;DHT22;59358;52.134;5.596;2023-01-25T09:58:31;0.20;99.90
19206;DHT22;59358;52.134;5.596;2023-01-25T10:01:11;0.20;99.90
19206;DHT22;59358;52.134;5.596;2023-01-25T10:03:47;0.30;99.90
19206;DHT22;59358;52.134;5.596;2023-01-25T10:06:16;0.30;99.90
19206;DHT22;59358;52.134;5.596;2023-01-25T10:08:49;0.40;99.90
19206;DHT22;59358;52.134;5.596;2023-01-25T10:11:21;0.50;99.90
19206;DHT22;59358;52.134;5.596;2023-01-25T10:13:50;0.60;99.90
19206;DHT22;59358;52.134;5.596;2023-01-25T10:16:23;0.50;99.90
19206;DHT22;59358;52.134;5.596;2023-01-25T10:18:58;0.70;99.90
19206;DHT22;59358;52.134;5.596;2023-01-25T10:21:28;0.80;99.90
19206;DHT22;59358;52.134;5.596;2023-01-25T10:24:11;0.60;99.90
19206;DHT22;59358;52.134;5.596;2023-01-25T10:26:43;0.60;99.90
19206;DHT22;59358;52.134;5.596;2023-01-25T10:29:18;0.70;99.90
19206;DHT22;59358;52.134;5.596;2023-01-25T10:31:48;0.60;99.90
19206;DHT22;59358;52.134;5.596;2023-01-25T10:34:19;0.60;99.90
19206;DHT22;59358;52.134;5.596;2023-01-25T10:36:49;0.70;99.90
19206;DHT22;59358;52.134;5.596;2023-01-25T10:39:17;0.70;99.90
19206;DHT22;59358;52.134;5.596;2023-01-25T10:41:49;0.70;99.90
19206;DHT22;59358;52.134;5.596;2023-01-25T10:44:16;0.70;99.90
19206;DHT22;59358;52.134;5.596;2023-01-25T10:46:58;0.80;99.90
19206;DHT22;59358;52.134;5.596;2023-01-25T10:49:30;0.80;99.90
19206;DHT22;59358;52.134;5.596;2023-01-25T10:52:11;0.60;99.90
19206;DHT22;59358;52.134;5.596;2023-01-25T10:54:38;0.60;99.90
19206;DHT22;59358;52.134;5.596;2023-01-25T10:57:06;0.70;99.90
19206;DHT22;59358;52.134;5.596;2023-01-25T10:59:35;0.80;99.90
19206;DHT22;59358;52.134;5.596;2023-01-25T11:05:32;0.50;99.90
19206;DHT22;59358;52.134;5.596;2023-01-25T11:08:19;0.50;99.90
19206;DHT22;59358;52.134;5.596;2023-01-25T11:10:47;0.50;99.90
19206;DHT22;59358;52.134;5.596;2023-01-25T11:13:20;0.50;99.90
19206;DHT22;59358;52.134;5.596;2023-01-25T11:15:49;0.40;99.90
19206;DHT22;59358;52.134;5.596;2023-01-25T11:18:19;0.40;99.90
19206;DHT22;59358;52.134;5.596;2023-01-25T11:21:03;0.50;99.90
19206;DHT22;59358;52.134;5.596;2023-01-25T11:23:30;0.50;99.90
19206;DHT22;59358;52.134;5.596;2023-01-25T11:26:11;0.40;99.90
19206;DHT22;59358;52.134;5.596;2023-01-25T11:28:38;0.40;99.90
19206;DHT22;59358;52.134;5.596;2023-01-25T11:31:10;0.40;99.90
19206;DHT22;59358;52.134;5.596;2023-01-25T11:33:39;0.30;99.90
19206;DHT22;59358;52.134;5.596;2023-01-25T11:36:18;0.60;99.90
19206;DHT22;59358;52.134;5.596;2023-01-25T11:39:01;0.60;99.90
19206;DHT22;59358;52.134;5.596;2023-01-25T11:41:37;0.60;99.90
19206;DHT22;59358;52.134;5.596;2023-01-25T11:44:34;0.60;99.90
19206;DHT22;59358;52.134;5.596;2023-01-25T11:47:11;0.60;99.90
19206;DHT22;59358;52.134;5.596;2023-01-25T11:49:56;0.60;99.90
19206;DHT22;59358;52.134;5.596;2023-01-25T11:52:33;0.50;99.90
19206;DHT22;59358;52.134;5.596;2023-01-25T11:55:12;0.50;99.90
19206;DHT22;59358;52.134;5.596;2023-01-25T11:57:59;0.50;99.90
19206;DHT22;59358;52.134;5.596;2023-01-25T12:00:39;0.60;99.90
19206;DHT22;59358;52.134;5.596;2023-01-25T12:06:04;0.90;99.90
19206;DHT22;59358;52.134;5.596;2023-01-25T12:08:45;0.60;99.90
19206;DHT22;59358;52.134;5.596;2023-01-25T12:11:24;0.60;99.90
19206;DHT22;59358;52.134;5.596;2023-01-25T12:14:01;0.80;99.90
19206;DHT22;59358;52.134;5.596;2023-01-25T12:16:47;0.70;99.90
19206;DHT22;59358;52.134;5.596;2023-01-25T12:19:36;0.70;99.90
19206;DHT22;59358;52.134;5.596;2023-01-25T12:22:16;0.50;99.90
19206;DHT22;59358;52.134;5.596;2023-01-25T12:24:52;0.50;99.90
19206;DHT22;59358;52.134;5.596;2023-01-25T12:27:34;0.50;99.90
19206;DHT22;59358;52.134;5.596;2023-01-25T12:30:13;0.50;99.90
19206;DHT22;59358;52.134;5.596;2023-01-25T12:32:45;0.50;99.90
19206;DHT22;59358;52.134;5.596;2023-01-25T12:35:24;0.50;99.90
19206;DHT22;59358;52.134;5.596;2023-01-25T12:37:56;0.60;99.90
19206;DHT22;59358;52.134;5.596;2023-01-25T12:40:37;0.70;99.90
19206;DHT22;59358;52.134;5.596;2023-01-25T12:43:10;0.70;99.90
19206;DHT22;59358;52.134;5.596;2023-01-25T12:45:39;0.50;99.90
19206;DHT22;59358;52.134;5.596;2023-01-25T12:48:15;0.30;99.90
19206;DHT22;59358;52.134;5.596;2023-01-25T12:50:46;0.30;99.90
19206;DHT22;59358;52.134;5.596;2023-01-25T12:53:18;0.30;99.90
19206;DHT22;59358;52.134;5.596;2023-01-25T12:55:47;0.50;99.90
19206;DHT22;59358;52.134;5.596;2023-01-25T12:58:21;0.40;99.90
19206;DHT22;59358;52.134;5.596;2023-01-25T13:00:55;0.50;99.90
19206;DHT22;59358;52.134;5.596;2023-01-25T13:03:34;0.30;99.90
19206;DHT22;59358;52.134;5.596;2023-01-25T13:06:12;0.20;99.90
19206;DHT22;59358;52.134;5.596;2023-01-25T13:08:50;0.40;99.90
19206;DHT22;59358;52.134;5.596;2023-01-25T13:11:23;0.50;99.90
19206;DHT22;59358;52.134;5.596;2023-01-25T13:13:51;0.70;99.90
19206;DHT22;59358;52.134;5.596;2023-01-25T13:16:40;0.70;99.90
19206;DHT22;59358;52.134;5.596;2023-01-25T13:19:18;0.70;99.90
19206;DHT22;59358;52.134;5.596;2023-01-25T13:21:46;0.70;99.90
19206;DHT22;59358;52.134;5.596;2023-01-25T13:24:21;0.60;99.90
19206;DHT22;59358;52.134;5.596;2023-01-25T13:26:58;0.60;99.90
19206;DHT22;59358;52.134;5.596;2023-01-25T13:29:56;0.60;99.90
19206;DHT22;59358;52.134;5.596;2023-01-25T13:32:52;0.40;99.90
19206;DHT22;59358;52.134;5.596;2023-01-25T13:38:33;0.30;99.90
19206;DHT22;59358;52.134;5.596;2023-01-25T13:41:08;0.20;99.90
19206;DHT22;59358;52.134;5.596;2023-01-25T13:43:40;0.20;99.90
19206;DHT22;59358;52.134;5.596;2023-01-25T13:46:11;0.20;99.90
19206;DHT22;59358;52.134;5.596;2023-01-25T13:48:52;0.20;99.90
19206;DHT22;59358;52.134;5.596;2023-01-25T13:51:22;0.30;99.90
19206;DHT22;59358;52.134;5.596;2023-01-25T13:53:57;0.30;99.90
19206;DHT22;59358;52.134;5.596;2023-01-25T13:56:27;0.20;99.90
19206;DHT22;59358;52.134;5.596;2023-01-25T13:58:56;0.10;99.90
19206;DHT22;59358;52.134;5.596;2023-01-25T14:01:24;0.10;99.90
19206;DHT22;59358;52.134;5.596;2023-01-25T14:03:53;0.30;99.90
19206;DHT22;59358;52.134;5.596;2023-01-25T14:06:23;0.30;99.90
19206;DHT22;59358;52.134;5.596;2023-01-25T14:08:52;0.40;99.90
19206;DHT22;59358;52.134;5.596;2023-01-25T14:11:21;0.40;99.90
19206;DHT22;59358;52.134;5.596;2023-01-25T14:13:58;0.40;99.90
19206;DHT22;59358;52.134;5.596;2023-01-25T14:16:26;0.30;99.90
19206;DHT22;59358;52.134;5.596;2023-01-25T14:18:55;0.30;99.90
19206;DHT22;59358;52.134;5.596;2023-01-25T14:21:23;0.30;99.90
19206;DHT22;59358;52.134;5.596;2023-01-25T14:23:50;0.20;99.90
19206;DHT22;59358;52.134;5.596;2023-01-25T14:26:20;0.10;99.90
19206;DHT22;59358;52.134;5.596;2023-01-25T14:28:49;0.10;99.90
19206;DHT22;59358;52.134;5.596;2023-01-25T14:31:23;0.10;99.90
19206;DHT22;59358;52.134;5.596;2023-01-25T14:33:50;0.10;99.90
19206;DHT22;59358;52.134;5.596;2023-01-25T14:36:23;0.10;99.90
19206;DHT22;59358;52.134;5.596;2023-01-25T14:38:52;0.20;99.90
19206;DHT22;59358;52.134;5.596;2023-01-25T14:41:22;0.10;99.90
19206;DHT22;59358;52.134;5.596;2023-01-25T14:43:52;0.20;99.90
19206;DHT22;59358;52.134;5.596;2023-01-25T14:46:25;0.20;99.90
19206;DHT22;59358;52.134;5.596;2023-01-25T14:49:06;0.20;99.90
19206;DHT22;59358;52.134;5.596;2023-01-25T14:51:33;0.20;99.90
19206;DHT22;59358;52.134;5.596;2023-01-25T14:54:12;0.20;99.90
19206;DHT22;59358;52.134;5.596;2023-01-25T14:56:41;0.10;99.90
19206;DHT22;59358;52.134;5.596;2023-01-25T14:59:28;0.10;99.90
19206;DHT22;59358;52.134;5.596;2023-01-25T15:02:00;0.20;99.90
19206;DHT22;59358;52.134;5.596;2023-01-25T15:04:28;0.10;99.90
19206;DHT22;59358;52.134;5.596;2023-01-25T15:06:56;0.00;99.90
19206;DHT22;59358;52.134;5.596;2023-01-25T15:09:37;0.10;99.90
19206;DHT22;59358;52.134;5.596;2023-01-25T15:12:22;0.10;99.90
19206;DHT22;59358;52.134;5.596;2023-01-25T15:14:53;0.10;99.90
19206;DHT22;59358;52.134;5.596;2023-01-25T15:17:42;0.00;99.90
19206;DHT22;59358;52.134;5.596;2023-01-25T15:20:37;0.10;99.90
19206;DHT22;59358;52.134;5.596;2023-01-25T15:23:28;0.00;99.90
19206;DHT22;59358;52.134;5.596;2023-01-25T15:25:57;0.10;99.90
19206;DHT22;59358;52.134;5.596;2023-01-25T15:28:25;0.10;99.90
19206;DHT22;59358;52.134;5.596;2023-01-25T15:30:53;0.10;99.90
19206;DHT22;59358;52.134;5.596;2023-01-25T15:33:26;0.20;99.90
19206;DHT22;59358;52.134;5.596;2023-01-25T15:35:54;0.20;99.90
19206;DHT22;59358;52.134;5.596;2023-01-25T15:38:22;0.10;99.90
19206;DHT22;59358;52.134;5.596;2023-01-25T15:40:50;0.20;99.90
19206;DHT22;59358;52.134;5.596;2023-01-25T15:43:18;0.20;99.90
19206;DHT22;59358;52.134;5.596;2023-01-25T15:45:47;0.20;99.90
19206;DHT22;59358;52.134;5.596;2023-01-25T15:48:16;0.20;99.90
19206;DHT22;59358;52.134;5.596;2023-01-25T15:50:45;0.10;99.90
19206;DHT22;59358;52.134;5.596;2023-01-25T15:53:14;0.10;99.90
19206;DHT22;59358;52.134;5.596;2023-01-25T15:55:41;0.00;99.90
19206;DHT22;59358;52.134;5.596;2023-01-25T15:58:10;0.00;99.90
19206;DHT22;59358;52.134;5.596;2023-01-25T16:00:40;-0.10;99.90
19206;DHT22;59358;52.134;5.596;2023-01-25T16:03:09;-0.10;99.90
19206;DHT22;59358;52.134;5.596;2023-01-25T16:05:36;-0.10;99.90
19206;DHT22;59358;52.134;5.596;2023-01-25T16:08:04;0.00;99.90
19206;DHT22;59358;52.134;5.596;2023-01-25T16:10:31;0.10;99.90
19206;DHT22;59358;52.134;5.596;2023-01-25T16:12:58;-0.10;99.90
19206;DHT22;59358;52.134;5.596;2023-01-25T16:15:25;-0.10;99.90
19206;DHT22;59358;52.134;5.596;2023-01-25T16:17:52;-0.10;99.90